sensor_id;sensor_type;location;lat;lon;timestamp;temperature;humidity
41469;DHT22;27206;47.032;15.484;2022-11-02T00:00:36;12.60;1.00
41469;DHT22;27206;47.032;15.484;2022-11-02T00:03:03;12.60;1.00
41469;DHT22;27206;47.032;15.484;2022-11-02T00:05:29;12.60;1.00
41469;DHT22;27206;47.032;15.484;2022-11-02T00:07:55;12.60;1.00
41469;DHT22;27206;47.032;15.484;2022-11-02T00:10:21;12.60;1.00
41469;DHT22;27206;47.032;15.484;2022-11-02T00:12:47;12.50;1.00
41469;DHT22;27206;47.032;15.484;2022-11-02T00:15:13;12.60;1.00
41469;DHT22;27206;47.032;15.484;2022-11-02T00:17:39;12.40;1.00
41469;DHT22;27206;47.032;15.484;2022-11-02T00:20:05;12.60;1.00
41469;DHT22;27206;47.032;15.484;2022-11-02T00:22:31;12.60;1.00
41469;DHT22;27206;47.032;15.484;2022-11-02T00:24:58;12.60;1.00
41469;DHT22;27206;47.032;15.484;2022-11-02T00:27:23;12.50;1.00
41469;DHT22;27206;47.032;15.484;2022-11-02T00:29:49;12.60;1.00
41469;DHT22;27206;47.032;15.484;2022-11-02T00:32:14;12.60;1.00
41469;DHT22;27206;47.032;15.484;2022-11-02T00:34:40;12.50;1.00
41469;DHT22;27206;47.032;15.484;2022-11-02T00:37:05;12.60;1.00
41469;DHT22;27206;47.032;15.484;2022-11-02T00:39:31;12.60;1.00
41469;DHT22;27206;47.032;15.484;2022-11-02T00:41:56;12.60;1.00
41469;DHT22;27206;47.032;15.484;2022-11-02T00:44:22;12.60;1.00
41469;DHT22;27206;47.032;15.484;2022-11-02T00:46:47;12.50;1.00
41469;DHT22;27206;47.032;15.484;2022-11-02T00:49:13;12.40;1.00
41469;DHT22;27206;47.032;15.484;2022-11-02T00:51:38;12.40;1.00
41469;DHT22;27206;47.032;15.484;2022-11-02T00:54:04;12.50;1.00
41469;DHT22;27206;47.032;15.484;2022-11-02T00:56:29;12.60;1.00
41469;DHT22;27206;47.032;15.484;2022-11-02T00:58:55;12.60;1.00
41469;DHT22;27206;47.032;15.484;2022-11-02T01:01:20;12.60;1.00
41469;DHT22;27206;47.032;15.484;2022-11-02T01:03:46;12.60;1.00
41469;DHT22;27206;47.032;15.484;2022-11-02T01:06:12;12.50;1.00
41469;DHT22;27206;47.032;15.484;2022-11-02T01:08:38;12.60;1.00
41469;DHT22;27206;47.032;15.484;2022-11-02T01:11:17;12.50;1.00
41469;DHT22;27206;47.032;15.484;2022-11-02T01:13:44;12.50;1.00
41469;DHT22;27206;47.032;15.484;2022-11-02T01:16:10;12.50;1.00
41469;DHT22;27206;47.032;15.484;2022-11-02T01:18:36;12.50;1.00
41469;DHT22;27206;47.032;15.484;2022-11-02T01:21:02;12.50;1.00
41469;DHT22;27206;47.032;15.484;2022-11-02T01:23:29;12.60;1.00
41469;DHT22;27206;47.032;15.484;2022-11-02T01:25:55;12.50;1.00
41469;DHT22;27206;47.032;15.484;2022-11-02T01:28:21;12.40;1.00
41469;DHT22;27206;47.032;15.484;2022-11-02T01:30:46;12.30;1.00
41469;DHT22;27206;47.032;15.484;2022-11-02T01:33:12;12.30;1.00
41469;DHT22;27206;47.032;15.484;2022-11-02T01:35:38;12.40;1.00
41469;DHT22;27206;47.032;15.484;2022-11-02T01:38:04;12.40;1.00
41469;DHT22;27206;47.032;15.484;2022-11-02T01:40:39;12.40;1.00
41469;DHT22;27206;47.032;15.484;2022-11-02T01:45:53;12.40;1.00
41469;DHT22;27206;47.032;15.484;2022-11-02T01:48:21;12.40;1.00
41469;DHT22;27206;47.032;15.484;2022-11-02T01:50:47;12.40;1.00
41469;DHT22;27206;47.032;15.484;2022-11-02T01:53:13;12.40;1.00
41469;DHT22;27206;47.032;15.484;2022-11-02T01:55:39;12.40;1.00
41469;DHT22;27206;47.032;15.484;2022-11-02T01:58:06;12.50;1.00
41469;DHT22;27206;47.032;15.484;2022-11-02T02:00:32;12.30;1.00
41469;DHT22;27206;47.032;15.484;2022-11-02T02:03:07;12.40;1.00
41469;DHT22;27206;47.032;15.484;2022-11-02T02:05:34;12.40;1.00
41469;DHT22;27206;47.032;15.484;2022-11-02T02:08:00;12.40;1.00
41469;DHT22;27206;47.032;15.484;2022-11-02T02:10:26;12.40;1.00
41469;DHT22;27206;47.032;15.484;2022-11-02T02:12:52;12.40;1.00
41469;DHT22;27206;47.032;15.484;2022-11-02T02:15:18;12.30;1.00
41469;DHT22;27206;47.032;15.484;2022-11-02T02:17:49;12.30;1.00
41469;DHT22;27206;47.032;15.484;2022-11-02T02:20:32;12.30;1.00
41469;DHT22;27206;47.032;15.484;2022-11-02T02:25:51;12.30;1.00
41469;DHT22;27206;47.032;15.484;2022-11-02T02:30:50;12.30;1.00
41469;DHT22;27206;47.032;15.484;2022-11-02T02:36:06;12.30;1.00
41469;DHT22;27206;47.032;15.484;2022-11-02T02:38:37;12.30;1.00
41469;DHT22;27206;47.032;15.484;2022-11-02T02:41:17;12.20;1.00
41469;DHT22;27206;47.032;15.484;2022-11-02T02:43:54;12.20;1.00
41469;DHT22;27206;47.032;15.484;2022-11-02T02:46:31;12.20;1.00
41469;DHT22;27206;47.032;15.484;2022-11-02T02:48:58;12.20;1.00
41469;DHT22;27206;47.032;15.484;2022-11-02T02:51:26;12.30;1.00
41469;DHT22;27206;47.032;15.484;2022-11-02T02:53:54;12.30;1.00
41469;DHT22;27206;47.032;15.484;2022-11-02T02:56:22;12.20;1.00
41469;DHT22;27206;47.032;15.484;2022-11-02T02:58:50;12.10;1.00
41469;DHT22;27206;47.032;15.484;2022-11-02T03:01:17;12.10;2.60
41469;DHT22;27206;47.032;15.484;2022-11-02T03:03:42;12.00;7.90
41469;DHT22;27206;47.032;15.484;2022-11-02T03:08:35;12.10;18.60
41469;DHT22;27206;47.032;15.484;2022-11-02T03:11:04;12.00;17.70
41469;DHT22;27206;47.032;15.484;2022-11-02T03:13:39;12.00;26.20
41469;DHT22;27206;47.032;15.484;2022-11-02T03:16:11;12.20;28.90
41469;DHT22;27206;47.032;15.484;2022-11-02T03:18:45;12.20;15.40
41469;DHT22;27206;47.032;15.484;2022-11-02T03:23:50;12.30;7.80
41469;DHT22;27206;47.032;15.484;2022-11-02T03:26:28;12.20;1.00
41469;DHT22;27206;47.032;15.484;2022-11-02T03:31:27;12.10;5.30
41469;DHT22;27206;47.032;15.484;2022-11-02T03:34:11;12.10;9.80
41469;DHT22;27206;47.032;15.484;2022-11-02T03:36:39;12.20;11.50
41469;DHT22;27206;47.032;15.484;2022-11-02T03:39:10;12.20;1.70
41469;DHT22;27206;47.032;15.484;2022-11-02T03:41:36;12.20;1.00
41469;DHT22;27206;47.032;15.484;2022-11-02T03:44:07;12.20;1.00
41469;DHT22;27206;47.032;15.484;2022-11-02T03:46:34;12.10;1.00
41469;DHT22;27206;47.032;15.484;2022-11-02T03:49:01;12.10;1.00
41469;DHT22;27206;47.032;15.484;2022-11-02T03:51:28;12.10;1.00
41469;DHT22;27206;47.032;15.484;2022-11-02T03:56:24;12.10;1.00
41469;DHT22;27206;47.032;15.484;2022-11-02T03:58:50;12.00;1.00
41469;DHT22;27206;47.032;15.484;2022-11-02T04:01:16;12.00;1.00
41469;DHT22;27206;47.032;15.484;2022-11-02T04:03:43;12.00;1.00
41469;DHT22;27206;47.032;15.484;2022-11-02T04:06:09;12.00;1.00
41469;DHT22;27206;47.032;15.484;2022-11-02T04:08:38;12.00;1.90
41469;DHT22;27206;47.032;15.484;2022-11-02T04:11:04;12.00;1.60
41469;DHT22;27206;47.032;15.484;2022-11-02T04:13:49;12.00;5.30
41469;DHT22;27206;47.032;15.484;2022-11-02T04:16:33;12.00;8.20
41469;DHT22;27206;47.032;15.484;2022-11-02T04:18:58;12.00;11.20
41469;DHT22;27206;47.032;15.484;2022-11-02T04:21:43;12.00;4.60
41469;DHT22;27206;47.032;15.484;2022-11-02T04:24:28;12.10;1.60
41469;DHT22;27206;47.032;15.484;2022-11-02T04:27:12;12.00;1.00
41469;DHT22;27206;47.032;15.484;2022-11-02T04:29:38;12.00;1.20
41469;DHT22;27206;47.032;15.484;2022-11-02T04:32:04;12.00;4.80
41469;DHT22;27206;47.032;15.484;2022-11-02T04:34:29;11.90;3.40
41469;DHT22;27206;47.032;15.484;2022-11-02T04:36:55;12.00;7.80
41469;DHT22;27206;47.032;15.484;2022-11-02T04:39:20;12.00;7.60
41469;DHT22;27206;47.032;15.484;2022-11-02T04:41:45;12.00;9.60
41469;DHT22;27206;47.032;15.484;2022-11-02T04:44:12;12.00;7.80
41469;DHT22;27206;47.032;15.484;2022-11-02T04:46:38;12.00;10.80
41469;DHT22;27206;47.032;15.484;2022-11-02T04:49:05;11.90;11.80
41469;DHT22;27206;47.032;15.484;2022-11-02T04:51:30;11.90;12.80
41469;DHT22;27206;47.032;15.484;2022-11-02T04:53:56;11.90;21.30
41469;DHT22;27206;47.032;15.484;2022-11-02T04:56:22;12.00;16.70
41469;DHT22;27206;47.032;15.484;2022-11-02T04:58:51;12.00;13.80
41469;DHT22;27206;47.032;15.484;2022-11-02T05:01:17;12.00;10.10
41469;DHT22;27206;47.032;15.484;2022-11-02T05:03:47;11.90;6.60
41469;DHT22;27206;47.032;15.484;2022-11-02T05:06:13;11.90;10.90
41469;DHT22;27206;47.032;15.484;2022-11-02T05:08:39;11.90;13.10
41469;DHT22;27206;47.032;15.484;2022-11-02T05:11:04;12.00;14.70
41469;DHT22;27206;47.032;15.484;2022-11-02T05:13:30;11.90;14.30
41469;DHT22;27206;47.032;15.484;2022-11-02T05:15:56;11.80;15.70
41469;DHT22;27206;47.032;15.484;2022-11-02T05:18:22;11.80;20.40
41469;DHT22;27206;47.032;15.484;2022-11-02T05:20:48;11.80;23.70
41469;DHT22;27206;47.032;15.484;2022-11-02T05:23:14;11.70;30.50
41469;DHT22;27206;47.032;15.484;2022-11-02T05:25:40;11.80;32.50
41469;DHT22;27206;47.032;15.484;2022-11-02T05:28:05;11.80;26.40
41469;DHT22;27206;47.032;15.484;2022-11-02T05:30:31;11.70;16.90
41469;DHT22;27206;47.032;15.484;2022-11-02T05:32:56;11.70;13.60
41469;DHT22;27206;47.032;15.484;2022-11-02T05:35:22;11.70;16.90
41469;DHT22;27206;47.032;15.484;2022-11-02T05:37:47;11.70;22.00
41469;DHT22;27206;47.032;15.484;2022-11-02T05:40:13;11.70;23.00
41469;DHT22;27206;47.032;15.484;2022-11-02T05:42:38;11.70;16.90
41469;DHT22;27206;47.032;15.484;2022-11-02T05:45:04;11.60;11.70
41469;DHT22;27206;47.032;15.484;2022-11-02T05:47:30;11.60;1.00
41469;DHT22;27206;47.032;15.484;2022-11-02T05:49:55;11.60;1.00
41469;DHT22;27206;47.032;15.484;2022-11-02T05:52:21;11.60;1.00
41469;DHT22;27206;47.032;15.484;2022-11-02T05:54:47;11.50;1.00
41469;DHT22;27206;47.032;15.484;2022-11-02T05:57:12;11.50;1.00
41469;DHT22;27206;47.032;15.484;2022-11-02T05:59:38;11.50;1.00
41469;DHT22;27206;47.032;15.484;2022-11-02T06:02:03;11.40;1.00
41469;DHT22;27206;47.032;15.484;2022-11-02T06:04:29;11.40;1.00
41469;DHT22;27206;47.032;15.484;2022-11-02T06:06:54;11.30;4.40
41469;DHT22;27206;47.032;15.484;2022-11-02T06:09:20;11.20;4.70
41469;DHT22;27206;47.032;15.484;2022-11-02T06:11:45;11.30;15.80
41469;DHT22;27206;47.032;15.484;2022-11-02T06:14:11;11.30;20.00
41469;DHT22;27206;47.032;15.484;2022-11-02T06:16:36;11.20;9.60
41469;DHT22;27206;47.032;15.484;2022-11-02T06:19:02;11.30;11.80
41469;DHT22;27206;47.032;15.484;2022-11-02T06:21:27;11.30;7.70
41469;DHT22;27206;47.032;15.484;2022-11-02T06:23:53;11.30;15.30
41469;DHT22;27206;47.032;15.484;2022-11-02T06:26:18;11.30;24.50
41469;DHT22;27206;47.032;15.484;2022-11-02T06:28:44;11.30;29.80
41469;DHT22;27206;47.032;15.484;2022-11-02T06:31:09;11.30;31.50
41469;DHT22;27206;47.032;15.484;2022-11-02T06:33:35;11.30;30.90
41469;DHT22;27206;47.032;15.484;2022-11-02T06:36:01;11.30;29.70
41469;DHT22;27206;47.032;15.484;2022-11-02T06:38:26;11.30;25.20
41469;DHT22;27206;47.032;15.484;2022-11-02T06:43:20;11.30;29.60
41469;DHT22;27206;47.032;15.484;2022-11-02T06:45:46;11.30;36.70
41469;DHT22;27206;47.032;15.484;2022-11-02T06:48:11;11.40;43.90
41469;DHT22;27206;47.032;15.484;2022-11-02T06:50:37;11.40;44.20
41469;DHT22;27206;47.032;15.484;2022-11-02T06:53:02;11.50;41.40
41469;DHT22;27206;47.032;15.484;2022-11-02T06:55:28;11.50;38.60
41469;DHT22;27206;47.032;15.484;2022-11-02T06:57:53;11.50;27.20
41469;DHT22;27206;47.032;15.484;2022-11-02T07:00:19;11.50;26.90
41469;DHT22;27206;47.032;15.484;2022-11-02T07:02:45;11.50;30.00
41469;DHT22;27206;47.032;15.484;2022-11-02T07:05:11;11.50;44.80
41469;DHT22;27206;47.032;15.484;2022-11-02T07:07:37;11.60;58.80
41469;DHT22;27206;47.032;15.484;2022-11-02T07:10:02;11.60;68.30
41469;DHT22;27206;47.032;15.484;2022-11-02T07:12:30;11.60;72.60
41469;DHT22;27206;47.032;15.484;2022-11-02T07:14:56;11.70;86.90
41469;DHT22;27206;47.032;15.484;2022-11-02T07:17:22;11.70;92.60
41469;DHT22;27206;47.032;15.484;2022-11-02T07:19:47;11.80;90.10
41469;DHT22;27206;47.032;15.484;2022-11-02T07:22:12;12.00;93.70
41469;DHT22;27206;47.032;15.484;2022-11-02T07:24:38;12.10;83.50
41469;DHT22;27206;47.032;15.484;2022-11-02T07:27:03;12.20;67.70
41469;DHT22;27206;47.032;15.484;2022-11-02T07:29:29;12.30;61.30
41469;DHT22;27206;47.032;15.484;2022-11-02T07:31:55;12.30;25.90
41469;DHT22;27206;47.032;15.484;2022-11-02T07:34:20;12.30;24.70
41469;DHT22;27206;47.032;15.484;2022-11-02T07:36:45;12.30;21.50
41469;DHT22;27206;47.032;15.484;2022-11-02T07:39:11;12.30;17.50
41469;DHT22;27206;47.032;15.484;2022-11-02T07:41:37;12.30;34.00
41469;DHT22;27206;47.032;15.484;2022-11-02T07:44:02;12.40;42.80
41469;DHT22;27206;47.032;15.484;2022-11-02T07:46:28;12.50;31.80
41469;DHT22;27206;47.032;15.484;2022-11-02T07:48:53;12.70;25.90
41469;DHT22;27206;47.032;15.484;2022-11-02T07:51:19;12.90;8.90
41469;DHT22;27206;47.032;15.484;2022-11-02T07:53:45;13.00;1.00
41469;DHT22;27206;47.032;15.484;2022-11-02T07:56:10;13.00;1.00
41469;DHT22;27206;47.032;15.484;2022-11-02T07:58:36;13.00;1.00
41469;DHT22;27206;47.032;15.484;2022-11-02T08:01:01;13.10;1.00
41469;DHT22;27206;47.032;15.484;2022-11-02T08:03:27;13.10;1.00
41469;DHT22;27206;47.032;15.484;2022-11-02T08:05:53;13.30;1.00
41469;DHT22;27206;47.032;15.484;2022-11-02T08:08:19;13.30;1.00
41469;DHT22;27206;47.032;15.484;2022-11-02T08:10:45;13.40;1.00
41469;DHT22;27206;47.032;15.484;2022-11-02T08:13:12;13.50;1.00
41469;DHT22;27206;47.032;15.484;2022-11-02T08:15:38;13.50;1.00
41469;DHT22;27206;47.032;15.484;2022-11-02T08:18:05;13.80;1.00
41469;DHT22;27206;47.032;15.484;2022-11-02T08:20:30;13.80;1.00
41469;DHT22;27206;47.032;15.484;2022-11-02T08:22:56;13.90;1.00
41469;DHT22;27206;47.032;15.484;2022-11-02T08:25:22;14.00;1.00
41469;DHT22;27206;47.032;15.484;2022-11-02T08:27:47;14.20;1.00
41469;DHT22;27206;47.032;15.484;2022-11-02T08:30:13;14.20;1.00
41469;DHT22;27206;47.032;15.484;2022-11-02T08:32:38;14.30;1.00
41469;DHT22;27206;47.032;15.484;2022-11-02T08:35:04;14.40;1.00
41469;DHT22;27206;47.032;15.484;2022-11-02T08:37:30;14.50;1.00
41469;DHT22;27206;47.032;15.484;2022-11-02T08:39:55;14.70;1.00
41469;DHT22;27206;47.032;15.484;2022-11-02T08:42:21;14.90;1.00
41469;DHT22;27206;47.032;15.484;2022-11-02T08:44:46;15.00;1.00
41469;DHT22;27206;47.032;15.484;2022-11-02T08:47:12;15.10;1.00
41469;DHT22;27206;47.032;15.484;2022-11-02T08:49:38;15.20;1.00
41469;DHT22;27206;47.032;15.484;2022-11-02T08:52:03;15.40;1.00
41469;DHT22;27206;47.032;15.484;2022-11-02T08:54:29;15.60;1.00
41469;DHT22;27206;47.032;15.484;2022-11-02T08:56:54;15.60;1.00
41469;DHT22;27206;47.032;15.484;2022-11-02T08:59:20;15.70;1.00
41469;DHT22;27206;47.032;15.484;2022-11-02T09:01:45;15.50;1.00
41469;DHT22;27206;47.032;15.484;2022-11-02T09:04:11;15.90;1.00
41469;DHT22;27206;47.032;15.484;2022-11-02T09:06:36;16.10;1.00
41469;DHT22;27206;47.032;15.484;2022-11-02T09:09:05;16.20;1.00
41469;DHT22;27206;47.032;15.484;2022-11-02T09:11:30;16.20;1.00
41469;DHT22;27206;47.032;15.484;2022-11-02T09:13:56;16.40;1.00
41469;DHT22;27206;47.032;15.484;2022-11-02T09:16:22;16.80;1.00
41469;DHT22;27206;47.032;15.484;2022-11-02T09:18:48;16.80;1.00
41469;DHT22;27206;47.032;15.484;2022-11-02T09:21:13;16.90;1.00
41469;DHT22;27206;47.032;15.484;2022-11-02T09:23:40;17.10;1.00
41469;DHT22;27206;47.032;15.484;2022-11-02T09:26:05;17.20;1.00
41469;DHT22;27206;47.032;15.484;2022-11-02T09:28:31;17.50;1.00
41469;DHT22;27206;47.032;15.484;2022-11-02T09:30:56;17.90;1.00
41469;DHT22;27206;47.032;15.484;2022-11-02T09:33:22;17.90;99.90
41469;DHT22;27206;47.032;15.484;2022-11-02T09:35:48;17.90;99.90
41469;DHT22;27206;47.032;15.484;2022-11-02T09:38:14;17.90;99.90
41469;DHT22;27206;47.032;15.484;2022-11-02T09:40:52;17.80;99.90
41469;DHT22;27206;47.032;15.484;2022-11-02T09:43:26;17.70;99.90
41469;DHT22;27206;47.032;15.484;2022-11-02T09:46:09;17.90;99.90
41469;DHT22;27206;47.032;15.484;2022-11-02T09:48:43;17.80;99.90
41469;DHT22;27206;47.032;15.484;2022-11-02T09:51:19;17.30;99.90
41469;DHT22;27206;47.032;15.484;2022-11-02T09:53:54;17.50;99.90
41469;DHT22;27206;47.032;15.484;2022-11-02T09:56:20;17.50;99.90
41469;DHT22;27206;47.032;15.484;2022-11-02T09:58:48;17.70;99.90
41469;DHT22;27206;47.032;15.484;2022-11-02T10:01:19;17.60;99.90
41469;DHT22;27206;47.032;15.484;2022-11-02T10:06:28;18.30;99.90
41469;DHT22;27206;47.032;15.484;2022-11-02T10:09:06;19.20;99.90
41469;DHT22;27206;47.032;15.484;2022-11-02T10:14:16;20.10;99.90
41469;DHT22;27206;47.032;15.484;2022-11-02T10:16:45;20.40;99.90
41469;DHT22;27206;47.032;15.484;2022-11-02T10:19:14;20.90;99.90
41469;DHT22;27206;47.032;15.484;2022-11-02T10:21:42;20.60;99.90
41469;DHT22;27206;47.032;15.484;2022-11-02T10:26:47;19.70;99.90
41469;DHT22;27206;47.032;15.484;2022-11-02T10:29:15;19.60;99.90
41469;DHT22;27206;47.032;15.484;2022-11-02T10:31:41;19.50;99.90
41469;DHT22;27206;47.032;15.484;2022-11-02T10:34:20;19.50;99.90
41469;DHT22;27206;47.032;15.484;2022-11-02T10:39:37;19.00;99.90
41469;DHT22;27206;47.032;15.484;2022-11-02T10:42:14;19.20;99.90
41469;DHT22;27206;47.032;15.484;2022-11-02T10:47:17;19.40;99.90
41469;DHT22;27206;47.032;15.484;2022-11-02T10:52:12;19.50;99.90
41469;DHT22;27206;47.032;15.484;2022-11-02T10:54:38;19.70;99.90
41469;DHT22;27206;47.032;15.484;2022-11-02T10:57:09;19.60;99.90
41469;DHT22;27206;47.032;15.484;2022-11-02T10:59:36;19.40;99.90
41469;DHT22;27206;47.032;15.484;2022-11-02T11:04:28;19.30;99.90
41469;DHT22;27206;47.032;15.484;2022-11-02T11:06:53;19.70;99.90
41469;DHT22;27206;47.032;15.484;2022-11-02T11:09:24;19.80;99.90
41469;DHT22;27206;47.032;15.484;2022-11-02T11:11:51;19.70;99.90
41469;DHT22;27206;47.032;15.484;2022-11-02T11:14:18;19.80;99.90
41469;DHT22;27206;47.032;15.484;2022-11-02T11:16:54;19.90;99.90
41469;DHT22;27206;47.032;15.484;2022-11-02T11:21:46;19.90;99.90
41469;DHT22;27206;47.032;15.484;2022-11-02T11:29:53;19.70;99.90
41469;DHT22;27206;47.032;15.484;2022-11-02T11:32:21;19.70;99.90
41469;DHT22;27206;47.032;15.484;2022-11-02T11:35:00;19.80;99.90
41469;DHT22;27206;47.032;15.484;2022-11-02T11:37:26;19.80;99.90
41469;DHT22;27206;47.032;15.484;2022-11-02T11:39:53;19.80;99.90
41469;DHT22;27206;47.032;15.484;2022-11-02T11:42:20;20.00;99.90
41469;DHT22;27206;47.032;15.484;2022-11-02T11:44:51;20.00;99.90
41469;DHT22;27206;47.032;15.484;2022-11-02T11:47:23;20.00;99.90
41469;DHT22;27206;47.032;15.484;2022-11-02T11:49:49;20.10;99.90
41469;DHT22;27206;47.032;15.484;2022-11-02T11:52:19;20.10;99.90
41469;DHT22;27206;47.032;15.484;2022-11-02T11:54:51;20.10;99.90
41469;DHT22;27206;47.032;15.484;2022-11-02T12:04:49;19.90;99.90
41469;DHT22;27206;47.032;15.484;2022-11-02T12:24:55;20.00;99.90
41469;DHT22;27206;47.032;15.484;2022-11-02T12:27:27;20.00;99.90
41469;DHT22;27206;47.032;15.484;2022-11-02T12:32:29;20.00;99.90
41469;DHT22;27206;47.032;15.484;2022-11-02T12:40:06;20.20;99.90
41469;DHT22;27206;47.032;15.484;2022-11-02T12:42:52;20.10;99.90
41469;DHT22;27206;47.032;15.484;2022-11-02T12:48:06;20.10;99.90
41469;DHT22;27206;47.032;15.484;2022-11-02T12:56:17;20.50;99.90
41469;DHT22;27206;47.032;15.484;2022-11-02T12:58:43;20.40;99.90
41469;DHT22;27206;47.032;15.484;2022-11-02T13:01:11;20.40;99.90
41469;DHT22;27206;47.032;15.484;2022-11-02T13:03:42;20.60;99.90
41469;DHT22;27206;47.032;15.484;2022-11-02T13:06:09;20.60;99.90
41469;DHT22;27206;47.032;15.484;2022-11-02T13:11:15;21.40;99.90
41469;DHT22;27206;47.032;15.484;2022-11-02T13:13:44;21.50;99.90
41469;DHT22;27206;47.032;15.484;2022-11-02T13:16:12;22.10;99.90
41469;DHT22;27206;47.032;15.484;2022-11-02T13:18:51;22.00;99.90
41469;DHT22;27206;47.032;15.484;2022-11-02T13:21:39;21.80;99.90
41469;DHT22;27206;47.032;15.484;2022-11-02T13:24:03;21.50;99.90
41469;DHT22;27206;47.032;15.484;2022-11-02T13:26:34;21.30;99.90
41469;DHT22;27206;47.032;15.484;2022-11-02T13:33:59;21.10;99.90
41469;DHT22;27206;47.032;15.484;2022-11-02T13:36:27;20.90;99.90
41469;DHT22;27206;47.032;15.484;2022-11-02T13:39:02;21.00;99.90
41469;DHT22;27206;47.032;15.484;2022-11-02T13:44:20;21.50;99.90
41469;DHT22;27206;47.032;15.484;2022-11-02T13:51:43;21.50;99.90
41469;DHT22;27206;47.032;15.484;2022-11-02T13:57:02;21.10;99.90
41469;DHT22;27206;47.032;15.484;2022-11-02T13:59:28;20.80;99.90
41469;DHT22;27206;47.032;15.484;2022-11-02T14:01:55;20.80;99.90
41469;DHT22;27206;47.032;15.484;2022-11-02T14:04:21;20.50;99.90
41469;DHT22;27206;47.032;15.484;2022-11-02T14:06:54;20.40;99.90
41469;DHT22;27206;47.032;15.484;2022-11-02T14:09:28;20.40;99.90
41469;DHT22;27206;47.032;15.484;2022-11-02T14:12:11;20.20;99.90
41469;DHT22;27206;47.032;15.484;2022-11-02T14:14:37;20.10;99.90
41469;DHT22;27206;47.032;15.484;2022-11-02T14:17:10;19.90;99.90
41469;DHT22;27206;47.032;15.484;2022-11-02T14:22:09;19.80;99.90
41469;DHT22;27206;47.032;15.484;2022-11-02T14:27:01;19.60;99.90
41469;DHT22;27206;47.032;15.484;2022-11-02T14:34:53;19.50;99.90
41469;DHT22;27206;47.032;15.484;2022-11-02T14:37:29;19.40;99.90
41469;DHT22;27206;47.032;15.484;2022-11-02T14:47:18;19.00;99.90
41469;DHT22;27206;47.032;15.484;2022-11-02T14:54:44;18.70;99.90
41469;DHT22;27206;47.032;15.484;2022-11-02T14:57:16;18.60;99.90
41469;DHT22;27206;47.032;15.484;2022-11-02T14:59:44;18.60;99.90
41469;DHT22;27206;47.032;15.484;2022-11-02T15:02:14;18.50;99.90
41469;DHT22;27206;47.032;15.484;2022-11-02T15:04:47;18.40;99.90
41469;DHT22;27206;47.032;15.484;2022-11-02T15:07:17;18.40;99.90
41469;DHT22;27206;47.032;15.484;2022-11-02T15:09:51;18.30;99.90
41469;DHT22;27206;47.032;15.484;2022-11-02T15:14:58;18.20;99.90
41469;DHT22;27206;47.032;15.484;2022-11-02T15:27:36;17.90;99.90
41469;DHT22;27206;47.032;15.484;2022-11-02T15:30:03;17.90;99.90
41469;DHT22;27206;47.032;15.484;2022-11-02T15:32:30;17.80;99.90
41469;DHT22;27206;47.032;15.484;2022-11-02T15:34:57;17.80;99.90
41469;DHT22;27206;47.032;15.484;2022-11-02T15:37:24;17.70;99.90
41469;DHT22;27206;47.032;15.484;2022-11-02T15:39:51;17.70;99.90
41469;DHT22;27206;47.032;15.484;2022-11-02T15:42:51;17.60;99.90
41469;DHT22;27206;47.032;15.484;2022-11-02T15:47:44;17.50;99.90
41469;DHT22;27206;47.032;15.484;2022-11-02T15:50:22;17.50;99.90
41469;DHT22;27206;47.032;15.484;2022-11-02T16:00:33;17.60;99.90
41469;DHT22;27206;47.032;15.484;2022-11-02T16:03:03;17.50;99.90
41469;DHT22;27206;47.032;15.484;2022-11-02T16:05:33;17.50;99.90
41469;DHT22;27206;47.032;15.484;2022-11-02T16:08:19;17.50;99.90
41469;DHT22;27206;47.032;15.484;2022-11-02T16:10:45;17.50;99.90
41469;DHT22;27206;47.032;15.484;2022-11-02T16:13:13;17.40;99.90
41469;DHT22;27206;47.032;15.484;2022-11-02T16:15:41;17.30;99.90
41469;DHT22;27206;47.032;15.484;2022-11-02T16:18:24;17.20;99.90
41469;DHT22;27206;47.032;15.484;2022-11-02T16:20:50;17.20;99.90
41469;DHT22;27206;47.032;15.484;2022-11-02T16:23:21;17.20;1.00
41469;DHT22;27206;47.032;15.484;2022-11-02T16:25:48;17.00;1.00
41469;DHT22;27206;47.032;15.484;2022-11-02T16:31:00;16.90;1.00
41469;DHT22;27206;47.032;15.484;2022-11-02T16:33:26;16.80;1.00
41469;DHT22;27206;47.032;15.484;2022-11-02T16:35:53;16.70;1.00
41469;DHT22;27206;47.032;15.484;2022-11-02T16:38:18;16.70;1.00
41469;DHT22;27206;47.032;15.484;2022-11-02T16:40:44;16.60;1.00
41469;DHT22;27206;47.032;15.484;2022-11-02T16:43:13;16.60;1.00
41469;DHT22;27206;47.032;15.484;2022-11-02T16:45:39;16.50;1.00
41469;DHT22;27206;47.032;15.484;2022-11-02T16:48:15;16.40;1.00
41469;DHT22;27206;47.032;15.484;2022-11-02T16:50:58;16.40;1.00
41469;DHT22;27206;47.032;15.484;2022-11-02T16:53:28;16.30;1.00
41469;DHT22;27206;47.032;15.484;2022-11-02T16:55:54;16.20;1.00
41469;DHT22;27206;47.032;15.484;2022-11-02T16:58:26;16.10;1.00
41469;DHT22;27206;47.032;15.484;2022-11-02T17:00:53;16.00;1.00
41469;DHT22;27206;47.032;15.484;2022-11-02T17:03:20;15.90;1.00
41469;DHT22;27206;47.032;15.484;2022-11-02T17:05:47;15.80;1.00
41469;DHT22;27206;47.032;15.484;2022-11-02T17:11:14;15.70;1.00
41469;DHT22;27206;47.032;15.484;2022-11-02T17:13:45;15.60;1.00
41469;DHT22;27206;47.032;15.484;2022-11-02T17:16:12;15.50;1.00
41469;DHT22;27206;47.032;15.484;2022-11-02T17:18:38;15.60;1.00
41469;DHT22;27206;47.032;15.484;2022-11-02T17:23:48;15.70;1.00
41469;DHT22;27206;47.032;15.484;2022-11-02T17:28:46;15.60;1.00
41469;DHT22;27206;47.032;15.484;2022-11-02T17:31:16;15.50;1.00
41469;DHT22;27206;47.032;15.484;2022-11-02T17:33:42;15.40;1.00
41469;DHT22;27206;47.032;15.484;2022-11-02T17:36:08;15.40;1.00
41469;DHT22;27206;47.032;15.484;2022-11-02T17:38:34;15.30;1.00
41469;DHT22;27206;47.032;15.484;2022-11-02T17:40:59;15.20;1.00
41469;DHT22;27206;47.032;15.484;2022-11-02T17:43:25;15.20;1.00
41469;DHT22;27206;47.032;15.484;2022-11-02T17:45:52;15.10;1.00
41469;DHT22;27206;47.032;15.484;2022-11-02T17:48:17;15.10;1.00
41469;DHT22;27206;47.032;15.484;2022-11-02T17:50:43;15.10;1.00
41469;DHT22;27206;47.032;15.484;2022-11-02T17:53:09;15.10;1.00
41469;DHT22;27206;47.032;15.484;2022-11-02T17:55:35;15.20;1.00
41469;DHT22;27206;47.032;15.484;2022-11-02T17:58:02;15.20;1.00
41469;DHT22;27206;47.032;15.484;2022-11-02T18:00:29;15.20;1.00
41469;DHT22;27206;47.032;15.484;2022-11-02T18:02:55;15.10;1.00
41469;DHT22;27206;47.032;15.484;2022-11-02T18:05:22;15.10;1.00
41469;DHT22;27206;47.032;15.484;2022-11-02T18:07:50;15.00;1.00
41469;DHT22;27206;47.032;15.484;2022-11-02T18:10:21;15.00;1.00
41469;DHT22;27206;47.032;15.484;2022-11-02T18:12:50;15.00;1.00